createdAt,value
2018-07-08T00:00:36.166Z,13.10
2018-07-08T00:03:04.647Z,13.00
2018-07-08T00:05:33.120Z,13.00
2018-07-08T00:08:01.597Z,12.90
2018-07-08T00:10:30.040Z,12.90
2018-07-08T00:12:58.445Z,12.80
2018-07-08T00:17:55.193Z,12.70
2018-07-08T00:20:23.655Z,12.70
2018-07-08T00:22:52.077Z,12.70
2018-07-08T00:27:48.620Z,12.60
2018-07-08T00:30:17.086Z,12.50
2018-07-08T00:32:45.520Z,12.50
2018-07-08T00:35:13.945Z,12.40
2018-07-08T00:37:42.381Z,12.40
2018-07-08T00:40:10.842Z,12.40
2018-07-08T00:42:39.447Z,12.30
2018-07-08T00:45:08.010Z,12.30
2018-07-08T00:47:36.484Z,12.20
2018-07-08T00:50:05.082Z,12.10
2018-07-08T00:52:33.581Z,12.10
2018-07-08T00:55:02.071Z,12.00
2018-07-08T00:57:30.549Z,12.00
2018-07-08T00:59:58.988Z,12.00
2018-07-08T01:02:27.489Z,11.90
2018-07-08T01:04:55.915Z,11.90
2018-07-08T01:07:24.333Z,11.80
2018-07-08T01:09:52.822Z,11.80
2018-07-08T01:12:21.231Z,11.80
2018-07-08T01:14:49.641Z,11.80
2018-07-08T01:17:18.060Z,11.80
2018-07-08T01:19:46.551Z,11.80
2018-07-08T01:22:15.047Z,11.70
2018-07-08T01:24:43.531Z,11.70
2018-07-08T01:27:11.944Z,11.70
2018-07-08T01:29:40.428Z,11.60
2018-07-08T01:34:37.012Z,11.60
2018-07-08T01:37:05.607Z,11.60
2018-07-08T01:39:34.016Z,11.60
2018-07-08T01:42:02.431Z,11.60
2018-07-08T01:44:30.924Z,11.60
2018-07-08T01:46:59.324Z,11.50
2018-07-08T01:49:27.776Z,11.50
2018-07-08T01:51:56.154Z,11.40
2018-07-08T01:54:24.725Z,11.40
2018-07-08T01:56:53.296Z,11.40
2018-07-08T02:02:01.883Z,11.30
2018-07-08T02:04:30.263Z,11.30
2018-07-08T02:06:58.649Z,11.30
2018-07-08T02:09:27.444Z,11.20
2018-07-08T02:11:55.883Z,11.20
2018-07-08T02:14:24.364Z,11.20
2018-07-08T02:16:53.113Z,11.10
2018-07-08T02:19:21.520Z,11.10
2018-07-08T02:21:50.016Z,11.00
2018-07-08T02:24:18.585Z,11.00
2018-07-08T02:26:47.139Z,11.00
2018-07-08T02:29:15.694Z,10.90
2018-07-08T02:31:44.390Z,10.90
2018-07-08T02:34:12.816Z,10.80
2018-07-08T02:36:41.622Z,10.80
2018-07-08T02:39:10.168Z,10.80
2018-07-08T02:41:38.636Z,10.70
2018-07-08T02:44:07.169Z,10.70
2018-07-08T02:46:35.739Z,10.70
2018-07-08T02:49:05.011Z,10.60
2018-07-08T02:51:33.455Z,10.60
2018-07-08T02:54:01.866Z,10.60
2018-07-08T02:56:30.295Z,10.50
2018-07-08T02:58:58.695Z,10.50
2018-07-08T03:01:27.146Z,10.40
2018-07-08T03:03:55.544Z,10.40
2018-07-08T03:06:23.949Z,10.30
2018-07-08T03:08:52.377Z,10.30
2018-07-08T03:11:20.758Z,10.30
2018-07-08T03:13:49.333Z,10.20
2018-07-08T03:16:17.772Z,10.20
2018-07-08T03:18:46.176Z,10.20
2018-07-08T03:21:14.570Z,10.10
2018-07-08T03:23:43.087Z,10.10
2018-07-08T03:26:11.523Z,10.10
2018-07-08T03:28:39.912Z,10.10
2018-07-08T03:31:08.357Z,10.10
2018-07-08T03:33:37.760Z,10.10
2018-07-08T03:36:06.965Z,10.10
2018-07-08T03:38:35.353Z,10.10
2018-07-08T03:41:03.844Z,10.20
2018-07-08T03:43:32.283Z,10.20
2018-07-08T03:46:00.785Z,10.30
2018-07-08T03:48:29.857Z,10.30
2018-07-08T03:50:58.307Z,10.40
2018-07-08T03:53:27.171Z,10.50
2018-07-08T03:55:55.634Z,10.50
2018-07-08T03:58:24.024Z,10.50
2018-07-08T04:00:52.477Z,10.50
2018-07-08T04:03:20.909Z,10.60
2018-07-08T04:05:50.056Z,10.60
2018-07-08T04:08:18.525Z,10.70
2018-07-08T04:10:46.989Z,10.70
2018-07-08T04:13:15.432Z,10.80
2018-07-08T04:15:43.812Z,10.90
2018-07-08T04:18:12.329Z,10.90
2018-07-08T04:20:47.579Z,10.90
2018-07-08T04:23:16.536Z,11.00
2018-07-08T04:25:44.964Z,11.00
2018-07-08T04:28:13.387Z,11.10
2018-07-08T04:30:41.827Z,11.10
2018-07-08T04:33:10.246Z,11.20
2018-07-08T04:35:38.819Z,11.20
2018-07-08T04:38:07.231Z,11.30
2018-07-08T04:40:35.644Z,11.40
2018-07-08T04:43:04.099Z,11.50
2018-07-08T04:48:01.334Z,11.70
2018-07-08T04:50:29.928Z,11.90
2018-07-08T04:52:58.505Z,12.00
2018-07-08T04:55:26.976Z,12.10
2018-07-08T04:57:55.397Z,12.30
2018-07-08T05:00:23.835Z,12.40
2018-07-08T05:02:52.267Z,12.50
2018-07-08T05:05:20.710Z,12.70
2018-07-08T05:07:49.128Z,12.90
2018-07-08T05:10:17.693Z,13.10
2018-07-08T05:12:46.199Z,13.30
2018-07-08T05:15:15.245Z,13.50
2018-07-08T05:17:44.351Z,13.60
2018-07-08T05:20:12.805Z,13.80
2018-07-08T05:22:41.993Z,13.90
2018-07-08T05:25:14.131Z,14.10
2018-07-08T05:27:43.120Z,14.20
2018-07-08T05:30:11.986Z,14.30
2018-07-08T05:35:09.083Z,14.50
2018-07-08T05:37:37.563Z,14.80
2018-07-08T05:40:06.067Z,14.90
2018-07-08T05:42:34.548Z,15.00
2018-07-08T05:45:03.131Z,15.20
2018-07-08T05:47:31.524Z,15.40
2018-07-08T05:49:59.988Z,15.40
2018-07-08T05:52:28.420Z,15.60
2018-07-08T05:54:56.836Z,15.70
2018-07-08T05:57:25.302Z,15.90
2018-07-08T05:59:53.756Z,16.20
2018-07-08T06:02:22.169Z,16.50
2018-07-08T06:04:50.564Z,16.80
2018-07-08T06:07:19.020Z,16.90
2018-07-08T06:09:47.450Z,17.10
2018-07-08T06:12:15.826Z,17.30
2018-07-08T06:14:44.275Z,17.50
2018-07-08T06:17:12.673Z,17.50
2018-07-08T06:19:41.072Z,17.60
2018-07-08T06:22:09.445Z,17.80
2018-07-08T06:24:37.922Z,17.90
2018-07-08T06:27:06.551Z,17.90
2018-07-08T06:29:34.904Z,18.10
2018-07-08T06:32:03.445Z,18.20
2018-07-08T06:34:31.840Z,18.10
2018-07-08T06:37:00.213Z,18.00
2018-07-08T06:39:28.634Z,17.80
2018-07-08T06:41:57.017Z,17.90
2018-07-08T06:44:25.539Z,18.00
2018-07-08T06:46:53.949Z,18.00
2018-07-08T06:49:22.419Z,18.10
2018-07-08T06:51:50.785Z,18.00
2018-07-08T06:54:19.235Z,17.80
2018-07-08T06:56:47.612Z,17.90
2018-07-08T06:59:15.988Z,17.90
2018-07-08T07:01:44.530Z,18.00
2018-07-08T07:04:12.937Z,18.20
2018-07-08T07:06:41.450Z,18.50
2018-07-08T07:09:10.787Z,18.60
2018-07-08T07:11:41.121Z,18.60
2018-07-08T07:14:09.506Z,18.70
2018-07-08T07:16:38.241Z,19.30
2018-07-08T07:19:06.980Z,19.60
2018-07-08T07:21:35.446Z,19.90
2018-07-08T07:24:03.941Z,20.10
2018-07-08T07:26:32.343Z,20.40
2018-07-08T07:29:00.743Z,20.60
2018-07-08T07:31:29.120Z,20.60
2018-07-08T07:33:57.503Z,20.20
2018-07-08T07:36:25.960Z,20.20
2018-07-08T07:38:54.479Z,20.10
2018-07-08T07:41:22.871Z,20.50
2018-07-08T07:43:51.533Z,20.60
2018-07-08T07:46:19.903Z,20.70
2018-07-08T07:48:48.270Z,20.80
2018-07-08T07:51:16.763Z,21.00
2018-07-08T07:53:45.171Z,21.30
2018-07-08T07:56:13.597Z,21.40
2018-07-08T07:58:41.957Z,20.60
2018-07-08T08:01:10.408Z,20.10
2018-07-08T08:03:38.829Z,20.10
2018-07-08T08:06:07.248Z,20.20
2018-07-08T08:08:35.868Z,19.90
2018-07-08T08:11:05.243Z,19.90
2018-07-08T08:13:33.594Z,20.40
2018-07-08T08:16:02.023Z,20.50
2018-07-08T08:18:30.431Z,20.90
2018-07-08T08:20:58.874Z,20.90
2018-07-08T08:23:27.206Z,21.10
2018-07-08T08:25:55.686Z,21.30
2018-07-08T08:28:24.065Z,21.80
2018-07-08T08:30:52.448Z,22.40
2018-07-08T08:33:21.244Z,22.60
2018-07-08T08:35:49.695Z,23.00
2018-07-08T08:38:18.272Z,23.10
2018-07-08T08:40:46.666Z,23.10
2018-07-08T08:43:15.099Z,23.30
2018-07-08T08:45:43.463Z,23.60
2018-07-08T08:48:11.815Z,23.70
2018-07-08T08:50:40.230Z,23.90
2018-07-08T08:53:08.764Z,23.50
2018-07-08T08:55:37.203Z,23.80
2018-07-08T08:58:05.768Z,24.10
2018-07-08T09:03:02.291Z,24.30
2018-07-08T09:05:30.699Z,24.60
2018-07-08T09:07:59.066Z,25.00
2018-07-08T09:10:27.499Z,25.00
2018-07-08T09:12:55.906Z,25.40
2018-07-08T09:15:24.275Z,25.00
2018-07-08T09:17:52.647Z,24.40
2018-07-08T09:20:21.012Z,24.60
2018-07-08T09:22:49.430Z,25.00
2018-07-08T09:25:17.895Z,25.30
2018-07-08T09:27:46.258Z,25.60
2018-07-08T09:30:14.668Z,25.50
2018-07-08T09:32:43.117Z,25.30
2018-07-08T09:35:11.525Z,24.00
2018-07-08T09:37:39.904Z,24.50
2018-07-08T09:40:08.277Z,24.80
2018-07-08T09:42:36.632Z,25.30
2018-07-08T09:45:05.075Z,25.70
2018-07-08T09:47:33.428Z,26.20
2018-07-08T09:50:01.853Z,26.30
2018-07-08T09:52:30.216Z,26.00
2018-07-08T09:54:58.611Z,26.10
2018-07-08T09:57:26.997Z,26.30
2018-07-08T09:59:55.453Z,26.30
2018-07-08T10:02:23.976Z,26.00
2018-07-08T10:04:52.420Z,26.20
2018-07-08T10:07:20.778Z,26.40
2018-07-08T10:09:49.149Z,26.50
2018-07-08T10:12:17.539Z,26.30
2018-07-08T10:14:45.931Z,26.70
2018-07-08T10:17:14.289Z,26.80
2018-07-08T10:19:42.886Z,26.20
2018-07-08T10:22:11.199Z,26.90
2018-07-08T10:24:39.650Z,26.60
2018-07-08T10:27:44.678Z,26.40
2018-07-08T10:30:13.113Z,26.60
2018-07-08T10:32:41.516Z,27.20
2018-07-08T10:35:19.933Z,27.60
2018-07-08T10:37:48.295Z,28.10
2018-07-08T10:40:16.647Z,28.30
2018-07-08T10:42:45.035Z,28.30
2018-07-08T10:45:13.460Z,28.10
2018-07-08T10:47:41.816Z,28.30
2018-07-08T10:50:10.234Z,28.30
2018-07-08T10:52:38.535Z,28.70
2018-07-08T10:55:06.956Z,28.90
2018-07-08T10:57:35.406Z,29.00
2018-07-08T11:00:03.932Z,28.70
2018-07-08T11:02:32.336Z,28.70
2018-07-08T11:05:00.806Z,28.00
2018-07-08T11:07:29.371Z,28.00
2018-07-08T11:09:58.020Z,28.20
2018-07-08T11:14:54.641Z,28.50
2018-07-08T11:17:23.026Z,28.70
2018-07-08T11:19:51.620Z,28.70
2018-07-08T11:22:20.081Z,28.90
2018-07-08T11:24:48.467Z,28.80
2018-07-08T11:27:16.863Z,29.00
2018-07-08T11:29:45.267Z,29.00
2018-07-08T11:32:13.666Z,29.20
2018-07-08T11:34:42.392Z,29.10
2018-07-08T11:37:10.776Z,29.20
2018-07-08T11:39:39.178Z,29.30
2018-07-08T11:42:07.671Z,29.60
2018-07-08T11:44:36.048Z,28.90
2018-07-08T11:47:04.443Z,29.10
2018-07-08T11:49:32.806Z,29.20
2018-07-08T11:52:01.193Z,29.40
2018-07-08T11:54:29.619Z,28.90
2018-07-08T11:56:58.303Z,29.20
2018-07-08T11:59:27.044Z,29.60
2018-07-08T12:01:55.551Z,29.80
2018-07-08T12:04:24.023Z,30.00
2018-07-08T12:06:52.432Z,30.30
2018-07-08T12:09:20.814Z,29.50
2018-07-08T12:11:49.358Z,28.20
2018-07-08T12:14:17.821Z,28.70
2018-07-08T12:16:46.344Z,29.30
2018-07-08T12:19:15.415Z,29.60
2018-07-08T12:21:43.782Z,30.10
2018-07-08T12:24:12.169Z,29.00
2018-07-08T12:26:40.595Z,28.70
2018-07-08T12:29:09.116Z,28.80
2018-07-08T12:31:37.507Z,29.20
2018-07-08T12:34:06.037Z,29.30
2018-07-08T12:36:34.461Z,28.70
2018-07-08T12:39:03.002Z,29.40
2018-07-08T12:41:31.487Z,29.70
2018-07-08T12:43:59.926Z,29.80
2018-07-08T12:46:29.103Z,29.80
2018-07-08T12:48:58.242Z,30.00
2018-07-08T12:51:26.631Z,30.40
2018-07-08T12:53:55.691Z,30.70
2018-07-08T12:56:24.528Z,30.40
2018-07-08T12:58:52.971Z,30.30
2018-07-08T13:01:21.544Z,29.70
2018-07-08T13:03:50.068Z,29.90
2018-07-08T13:06:18.959Z,29.30
2018-07-08T13:08:47.581Z,28.80
2018-07-08T13:11:15.972Z,29.30
2018-07-08T13:13:44.798Z,29.00
2018-07-08T13:16:13.176Z,29.60
2018-07-08T13:18:42.406Z,30.30
2018-07-08T13:21:10.839Z,30.70
2018-07-08T13:23:39.263Z,30.50
2018-07-08T13:26:07.915Z,30.90
2018-07-08T13:28:36.629Z,30.80
2018-07-08T13:31:05.361Z,31.10
2018-07-08T13:33:34.216Z,31.30
2018-07-08T13:36:03.120Z,31.50
2018-07-08T13:38:32.103Z,31.40
2018-07-08T13:41:00.636Z,31.20
2018-07-08T13:43:29.174Z,31.30
2018-07-08T13:45:57.752Z,31.60
2018-07-08T13:48:26.400Z,31.30
2018-07-08T13:50:54.832Z,31.40
2018-07-08T13:53:23.660Z,31.40
2018-07-08T13:55:52.308Z,31.50
2018-07-08T13:58:21.781Z,31.60
2018-07-08T14:00:50.322Z,31.40
2018-07-08T14:03:18.808Z,31.60
2018-07-08T14:05:47.414Z,31.90
2018-07-08T14:08:15.886Z,32.10
2018-07-08T14:10:45.298Z,32.00
2018-07-08T14:13:13.706Z,31.70
2018-07-08T14:15:43.131Z,31.50
2018-07-08T14:18:12.865Z,31.60
2018-07-08T14:20:41.742Z,31.80
2018-07-08T14:23:10.148Z,31.70
2018-07-08T14:25:38.637Z,31.80
2018-07-08T14:28:07.017Z,31.50
2018-07-08T14:30:35.604Z,31.00
2018-07-08T14:33:04.137Z,31.10
2018-07-08T14:35:32.748Z,31.00
2018-07-08T14:38:01.313Z,30.80
2018-07-08T14:40:29.871Z,30.90
2018-07-08T14:42:58.359Z,30.70
2018-07-08T14:45:26.967Z,30.90
2018-07-08T14:47:55.756Z,31.30
2018-07-08T14:50:24.291Z,31.30
2018-07-08T14:52:53.000Z,31.10
2018-07-08T14:55:21.550Z,31.30
2018-07-08T14:57:50.320Z,31.20
2018-07-08T15:00:18.861Z,30.80
2018-07-08T15:02:47.580Z,30.80
2018-07-08T15:05:16.074Z,31.00
2018-07-08T15:07:44.575Z,31.20
2018-07-08T15:10:13.238Z,30.80
2018-07-08T15:12:41.930Z,31.10
2018-07-08T15:15:10.635Z,30.90
2018-07-08T15:17:39.213Z,30.90
2018-07-08T15:20:07.770Z,31.30
2018-07-08T15:22:36.275Z,31.40
2018-07-08T15:25:04.960Z,31.40
2018-07-08T15:27:33.356Z,31.60
2018-07-08T15:30:01.720Z,31.50
2018-07-08T15:32:30.410Z,31.60
2018-07-08T15:34:58.815Z,31.30
2018-07-08T15:37:27.231Z,30.90
2018-07-08T15:39:55.988Z,30.60
2018-07-08T15:42:24.492Z,30.40
2018-07-08T15:44:52.893Z,30.20
2018-07-08T15:47:21.474Z,30.00
2018-07-08T15:49:50.047Z,30.10
2018-07-08T15:52:18.386Z,29.10
2018-07-08T15:54:47.190Z,29.20
2018-07-08T15:57:16.168Z,29.20
2018-07-08T15:59:44.742Z,29.10
2018-07-08T16:02:13.191Z,29.30
2018-07-08T16:04:41.671Z,29.30
2018-07-08T16:07:10.147Z,29.10
2018-07-08T16:09:38.693Z,29.10
2018-07-08T16:12:07.210Z,29.10
2018-07-08T16:14:35.733Z,28.90
2018-07-08T16:17:04.205Z,28.80
2018-07-08T16:19:32.844Z,28.30
2018-07-08T16:22:01.231Z,28.30
2018-07-08T16:24:29.776Z,28.20
2018-07-08T16:26:58.202Z,27.80
2018-07-08T16:29:26.648Z,27.80
2018-07-08T16:31:55.147Z,27.80
2018-07-08T16:34:23.780Z,27.70
2018-07-08T16:36:52.205Z,27.90
2018-07-08T16:39:20.688Z,27.80
2018-07-08T16:41:49.146Z,27.80
2018-07-08T16:44:17.536Z,27.80
2018-07-08T16:46:46.019Z,27.80
2018-07-08T16:49:14.468Z,27.70
2018-07-08T16:51:42.907Z,27.70
2018-07-08T16:54:11.305Z,27.60
2018-07-08T16:56:39.864Z,27.50
2018-07-08T16:59:08.525Z,27.50
2018-07-08T17:01:37.019Z,27.50
2018-07-08T17:04:05.596Z,27.20
2018-07-08T17:06:34.080Z,27.10
2018-07-08T17:09:02.574Z,26.90
2018-07-08T17:11:30.976Z,26.80
2018-07-08T17:13:59.582Z,26.70
2018-07-08T17:16:28.026Z,26.70
2018-07-08T17:18:56.466Z,26.60
2018-07-08T17:21:24.827Z,26.60
2018-07-08T17:23:54.329Z,26.60
2018-07-08T17:26:22.825Z,26.60
2018-07-08T17:28:51.608Z,26.40
2018-07-08T17:31:20.410Z,26.30
2018-07-08T17:33:49.195Z,26.20
2018-07-08T17:36:17.646Z,26.20
2018-07-08T17:38:46.309Z,26.10
2018-07-08T17:41:14.973Z,26.10
2018-07-08T17:43:43.449Z,25.90
2018-07-08T17:46:12.071Z,25.80
2018-07-08T17:48:40.701Z,25.70
2018-07-08T17:51:09.154Z,25.60
2018-07-08T17:53:37.644Z,25.50
2018-07-08T17:56:06.248Z,25.40
2018-07-08T17:58:34.670Z,25.30
2018-07-08T18:01:03.558Z,25.20
2018-07-08T18:03:32.065Z,25.20
2018-07-08T18:06:00.521Z,25.00
2018-07-08T18:08:29.031Z,25.00
2018-07-08T18:10:57.632Z,24.90
2018-07-08T18:13:26.609Z,24.90
2018-07-08T18:15:55.199Z,24.80
2018-07-08T18:18:24.562Z,24.70
2018-07-08T18:20:54.919Z,24.60
2018-07-08T18:23:23.440Z,24.50
2018-07-08T18:25:53.253Z,24.40
2018-07-08T18:28:21.952Z,24.30
2018-07-08T18:30:50.540Z,24.20
2018-07-08T18:33:19.225Z,24.10
2018-07-08T18:35:47.903Z,24.00
2018-07-08T18:38:16.610Z,23.90
2018-07-08T18:40:45.128Z,23.80
2018-07-08T18:43:13.796Z,23.70
2018-07-08T18:45:42.361Z,23.60
2018-07-08T18:48:10.944Z,23.50
2018-07-08T18:50:39.466Z,23.40
2018-07-08T18:53:08.099Z,23.30
2018-07-08T18:55:36.660Z,23.20
2018-07-08T18:58:05.268Z,23.10
2018-07-08T19:00:35.607Z,23.00
2018-07-08T19:03:04.293Z,22.90
2018-07-08T19:05:33.236Z,22.80
2018-07-08T19:08:01.732Z,22.70
2018-07-08T19:10:30.197Z,22.60
2018-07-08T19:12:58.598Z,22.50
2018-07-08T19:15:27.044Z,22.40
2018-07-08T19:17:55.448Z,22.30
2018-07-08T19:20:24.027Z,22.20
2018-07-08T19:22:52.591Z,22.00
2018-07-08T19:25:21.217Z,21.90
2018-07-08T19:27:49.859Z,21.80
2018-07-08T19:30:18.416Z,21.70
2018-07-08T19:32:46.813Z,21.60
2018-07-08T19:35:15.304Z,21.50
2018-07-08T19:37:43.688Z,21.40
2018-07-08T19:40:12.228Z,21.30
2018-07-08T19:42:41.550Z,21.20
2018-07-08T19:45:10.056Z,21.10
2018-07-08T19:47:38.543Z,21.00
2018-07-08T19:50:06.922Z,20.90
2018-07-08T19:52:35.449Z,20.80
2018-07-08T19:55:03.936Z,20.70
2018-07-08T19:57:32.528Z,20.60
2018-07-08T20:00:01.060Z,20.50
2018-07-08T20:02:29.590Z,20.50
2018-07-08T20:04:58.078Z,20.40
2018-07-08T20:07:26.727Z,20.30
2018-07-08T20:09:55.173Z,20.20
2018-07-08T20:12:24.650Z,20.10
2018-07-08T20:14:53.240Z,20.10
2018-07-08T20:17:22.800Z,20.00
2018-07-08T20:19:51.249Z,19.90
2018-07-08T20:22:19.735Z,19.80
2018-07-08T20:24:48.221Z,19.80
2018-07-08T20:27:16.717Z,19.70
2018-07-08T20:29:45.628Z,19.60
2018-07-08T20:32:14.120Z,19.50
2018-07-08T20:34:45.044Z,19.40
2018-07-08T20:37:13.568Z,19.40
2018-07-08T20:39:41.995Z,19.30
2018-07-08T20:44:38.699Z,19.20
2018-07-08T20:47:07.310Z,19.10
2018-07-08T20:49:35.892Z,19.00
2018-07-08T20:52:04.395Z,18.90
2018-07-08T20:54:33.226Z,18.80
2018-07-08T20:57:01.843Z,18.70
2018-07-08T20:59:30.355Z,18.70
2018-07-08T21:01:58.780Z,18.60
2018-07-08T21:04:27.444Z,18.50
2018-07-08T21:06:56.159Z,18.50
2018-07-08T21:09:24.701Z,18.40
2018-07-08T21:11:53.447Z,18.30
2018-07-08T21:14:21.973Z,18.30
2018-07-08T21:16:50.683Z,18.20
2018-07-08T21:19:19.094Z,18.10
2018-07-08T21:21:47.515Z,18.10
2018-07-08T21:24:16.503Z,18.00
2018-07-08T21:26:45.057Z,17.90
2018-07-08T21:29:13.688Z,17.90
2018-07-08T21:31:42.220Z,17.80
2018-07-08T21:34:13.997Z,17.70
2018-07-08T21:36:42.499Z,17.70
2018-07-08T21:39:11.550Z,17.60
2018-07-08T21:41:40.840Z,17.50
2018-07-08T21:44:09.497Z,17.50
2018-07-08T21:46:37.968Z,17.40
2018-07-08T21:49:06.574Z,17.40
2018-07-08T21:51:34.972Z,17.30
2018-07-08T21:54:03.445Z,17.30
2018-07-08T21:56:31.915Z,17.20
2018-07-08T21:59:00.342Z,17.20
2018-07-08T22:01:31.820Z,17.10
2018-07-08T22:04:00.825Z,17.10
2018-07-08T22:06:29.286Z,17.00
2018-07-08T22:08:57.716Z,17.00
2018-07-08T22:11:26.244Z,16.90
2018-07-08T22:13:54.684Z,16.90
2018-07-08T22:16:23.080Z,16.80
2018-07-08T22:18:51.480Z,16.80
2018-07-08T22:21:19.980Z,16.70
2018-07-08T22:23:49.377Z,16.60
2018-07-08T22:26:18.961Z,16.60
2018-07-08T22:28:47.392Z,16.50
2018-07-08T22:31:15.810Z,16.50
2018-07-08T22:33:44.268Z,16.40
2018-07-08T22:36:12.699Z,16.30
2018-07-08T22:38:41.726Z,16.30
2018-07-08T22:41:10.178Z,16.20
2018-07-08T22:43:38.600Z,16.10
2018-07-08T22:46:07.176Z,16.10
2018-07-08T22:48:35.670Z,16.00
2018-07-08T22:51:04.060Z,16.00
2018-07-08T22:53:32.609Z,15.90
2018-07-08T22:56:01.081Z,15.90
2018-07-08T22:58:29.736Z,15.80
2018-07-08T23:01:09.289Z,15.80
2018-07-08T23:03:46.209Z,15.70
2018-07-08T23:06:14.730Z,15.60
2018-07-08T23:08:43.150Z,15.50
2018-07-08T23:11:11.877Z,15.50
2018-07-08T23:13:40.663Z,15.40
2018-07-08T23:16:09.319Z,15.40
2018-07-08T23:18:37.856Z,15.30
2018-07-08T23:21:06.264Z,15.30
2018-07-08T23:23:34.744Z,15.30
2018-07-08T23:26:03.333Z,15.20
2018-07-08T23:28:32.428Z,15.20
2018-07-08T23:31:00.896Z,15.10
2018-07-08T23:33:29.488Z,15.10
2018-07-08T23:35:58.019Z,15.10
2018-07-08T23:38:26.483Z,15.00
2018-07-08T23:40:54.898Z,15.00
2018-07-08T23:43:23.321Z,15.00
2018-07-08T23:45:51.827Z,14.90
2018-07-08T23:48:20.289Z,14.80
2018-07-08T23:50:48.756Z,14.80
2018-07-08T23:53:17.142Z,14.70
2018-07-08T23:55:45.639Z,14.70
2018-07-08T23:58:14.070Z,14.60
